Airfield :







YOU CAN JOIN US ON...

 
LOGIN :

Register | Disclaimer

   EN    FR    IT 

 









Legend :    VFR   Marginal VFR   IFR   Intensive IFR   Very Intensive IFR
Visi :
Ceiling :
>= 8 km
>= 3000ft
5 to 8 km
1000 to 3000 ft
1500m to 5 km
500 to 1000 ft
800 to 1500m
200 to 500 ft
< 800m
< 200 ft
Symbols :   Thunderstorms  Fog  Heavy snow  Heavy precipitations  Wind > 20 kt






- Airport Elevation : 175 ft
- IATA code : YLC


CYLC - Kimmirut

CURRENT METAR :
  • 211500Z 15017G23KT 15SM -SN FEW011 BKN017 M01/M02 A3018 RMK SC2SC3 SLP226

EXPIRED METARs :
  • 211445Z 15013G19KT 10SM -SN SCT009 BKN013 M01/M02 A3018 RMK ST4ST3 SLP226
  • 211423Z 15015G20KT 1SM -SN OVC009 M01/M03 A3018 RMK ST8 SLP226
  • 211400Z 14011G18KT 10SM -SHSN OVC010 M02/M03 A3018 RMK ST8 SLP225
  • 211300Z 14013G20KT 15SM -SHSN BKN012 M02/M04 A3018 RMK ST7 SLP224

TAF N/A



MET'MAP, your aeronautical weather chart ! - Copyright ORBIFLY December 2007 - Disclaimer

ORBIFLY MET'MAP TEAM :

Programming & Development : Alexandra Zaïnal
Concept & Development : Baudouin d'Aumeries
Co-Development & Prog : Marc-Olivier Méhu
Technical & hardware support : Manuel Goepfert

Contact : metmap@orbifly.com




SOURCES & CREDITS :

   NOAA